sensor_id;sensor_type;location;lat;lon;timestamp;P1;durP1;ratioP1;P2;durP2;ratioP2
44706;SDS011;30433;45.596;8.408;2022-08-03T00:00:04;3.58;;;2.15;;
44706;SDS011;30433;45.596;8.408;2022-08-03T00:06:08;3.65;;;2.28;;
44706;SDS011;30433;45.596;8.408;2022-08-03T00:12:10;2.95;;;2.50;;
44706;SDS011;30433;45.596;8.408;2022-08-03T00:18:12;3.92;;;2.65;;
44706;SDS011;30433;45.596;8.408;2022-08-03T00:30:18;2.95;;;2.45;;
44706;SDS011;30433;45.596;8.408;2022-08-03T00:36:20;3.33;;;2.40;;
44706;SDS011;30433;45.596;8.408;2022-08-03T00:48:25;3.45;;;2.63;;
44706;SDS011;30433;45.596;8.408;2022-08-03T01:00:31;2.93;;;2.63;;
44706;SDS011;30433;45.596;8.408;2022-08-03T01:06:36;4.35;;;2.70;;
44706;SDS011;30433;45.596;8.408;2022-08-03T01:12:46;4.63;;;2.40;;
44706;SDS011;30433;45.596;8.408;2022-08-03T01:18:59;6.28;;;2.63;;
44706;SDS011;30433;45.596;8.408;2022-08-03T01:25:11;3.25;;;2.78;;
44706;SDS011;30433;45.596;8.408;2022-08-03T01:31:27;5.05;;;2.40;;
44706;SDS011;30433;45.596;8.408;2022-08-03T01:37:34;3.80;;;2.47;;
44706;SDS011;30433;45.596;8.408;2022-08-03T01:43:40;4.10;;;3.03;;
44706;SDS011;30433;45.596;8.408;2022-08-03T01:49:49;3.20;;;2.70;;
44706;SDS011;30433;45.596;8.408;2022-08-03T01:55:53;3.63;;;2.60;;
44706;SDS011;30433;45.596;8.408;2022-08-03T02:01:57;3.15;;;2.83;;
44706;SDS011;30433;45.596;8.408;2022-08-03T02:08:03;2.63;;;2.42;;
44706;SDS011;30433;45.596;8.408;2022-08-03T02:14:08;3.50;;;2.88;;
44706;SDS011;30433;45.596;8.408;2022-08-03T02:20:11;3.10;;;2.78;;
44706;SDS011;30433;45.596;8.408;2022-08-03T02:26:16;5.38;;;2.70;;
44706;SDS011;30433;45.596;8.408;2022-08-03T02:32:21;3.35;;;2.50;;
44706;SDS011;30433;45.596;8.408;2022-08-03T02:38:30;5.03;;;2.75;;
44706;SDS011;30433;45.596;8.408;2022-08-03T02:44:35;5.47;;;3.15;;
44706;SDS011;30433;45.596;8.408;2022-08-03T02:50:39;3.00;;;2.50;;
44706;SDS011;30433;45.596;8.408;2022-08-03T02:56:44;2.97;;;2.67;;
44706;SDS011;30433;45.596;8.408;2022-08-03T03:02:49;2.97;;;2.67;;
44706;SDS011;30433;45.596;8.408;2022-08-03T03:08:52;6.47;;;2.95;;
44706;SDS011;30433;45.596;8.408;2022-08-03T03:14:56;4.53;;;2.85;;
44706;SDS011;30433;45.596;8.408;2022-08-03T03:27:03;3.35;;;2.40;;
44706;SDS011;30433;45.596;8.408;2022-08-03T03:33:06;4.05;;;2.60;;
44706;SDS011;30433;45.596;8.408;2022-08-03T03:39:09;3.95;;;3.05;;
44706;SDS011;30433;45.596;8.408;2022-08-03T03:45:12;4.97;;;2.60;;
44706;SDS011;30433;45.596;8.408;2022-08-03T03:51:15;5.22;;;2.53;;
44706;SDS011;30433;45.596;8.408;2022-08-03T04:03:21;3.72;;;2.97;;
44706;SDS011;30433;45.596;8.408;2022-08-03T04:15:43;6.13;;;2.95;;
44706;SDS011;30433;45.596;8.408;2022-08-03T04:21:47;6.97;;;3.00;;
44706;SDS011;30433;45.596;8.408;2022-08-03T04:27:51;6.20;;;3.05;;
44706;SDS011;30433;45.596;8.408;2022-08-03T04:33:56;4.13;;;2.90;;
44706;SDS011;30433;45.596;8.408;2022-08-03T04:39:58;4.30;;;2.63;;
44706;SDS011;30433;45.596;8.408;2022-08-03T04:46:03;5.80;;;2.60;;
44706;SDS011;30433;45.596;8.408;2022-08-03T04:52:08;5.32;;;2.63;;
44706;SDS011;30433;45.596;8.408;2022-08-03T04:58:10;12.15;;;3.60;;
44706;SDS011;30433;45.596;8.408;2022-08-03T05:04:12;3.08;;;2.35;;
44706;SDS011;30433;45.596;8.408;2022-08-03T05:10:16;6.82;;;2.60;;
44706;SDS011;30433;45.596;8.408;2022-08-03T05:16:18;3.67;;;2.63;;
44706;SDS011;30433;45.596;8.408;2022-08-03T05:22:20;4.65;;;2.42;;
44706;SDS011;30433;45.596;8.408;2022-08-03T05:28:24;14.73;;;3.28;;
44706;SDS011;30433;45.596;8.408;2022-08-03T05:34:26;4.82;;;2.20;;
44706;SDS011;30433;45.596;8.408;2022-08-03T05:46:31;8.43;;;2.90;;
44706;SDS011;30433;45.596;8.408;2022-08-03T05:52:33;3.28;;;2.20;;
44706;SDS011;30433;45.596;8.408;2022-08-03T05:58:35;3.17;;;2.47;;
44706;SDS011;30433;45.596;8.408;2022-08-03T06:04:39;6.25;;;2.55;;
44706;SDS011;30433;45.596;8.408;2022-08-03T06:10:41;5.75;;;2.20;;
44706;SDS011;30433;45.596;8.408;2022-08-03T06:16:43;3.75;;;1.88;;
44706;SDS011;30433;45.596;8.408;2022-08-03T06:22:46;6.95;;;2.22;;
44706;SDS011;30433;45.596;8.408;2022-08-03T06:28:49;5.90;;;2.05;;
44706;SDS011;30433;45.596;8.408;2022-08-03T06:34:51;3.30;;;1.90;;
44706;SDS011;30433;45.596;8.408;2022-08-03T06:40:54;3.53;;;1.88;;
44706;SDS011;30433;45.596;8.408;2022-08-03T06:46:56;5.00;;;2.38;;
44706;SDS011;30433;45.596;8.408;2022-08-03T06:52:58;5.03;;;2.00;;
44706;SDS011;30433;45.596;8.408;2022-08-03T06:59:02;4.10;;;1.80;;
44706;SDS011;30433;45.596;8.408;2022-08-03T07:05:05;3.03;;;2.00;;
44706;SDS011;30433;45.596;8.408;2022-08-03T07:11:08;2.47;;;1.70;;
44706;SDS011;30433;45.596;8.408;2022-08-03T07:17:11;2.65;;;1.75;;
44706;SDS011;30433;45.596;8.408;2022-08-03T07:23:13;6.55;;;2.20;;
44706;SDS011;30433;45.596;8.408;2022-08-03T07:29:15;4.65;;;1.90;;
44706;SDS011;30433;45.596;8.408;2022-08-03T07:35:18;2.20;;;1.60;;
44706;SDS011;30433;45.596;8.408;2022-08-03T07:41:23;3.80;;;1.60;;
44706;SDS011;30433;45.596;8.408;2022-08-03T07:47:25;3.97;;;1.13;;
44706;SDS011;30433;45.596;8.408;2022-08-03T07:53:29;4.93;;;1.58;;
44706;SDS011;30433;45.596;8.408;2022-08-03T07:59:31;4.30;;;1.50;;
44706;SDS011;30433;45.596;8.408;2022-08-03T08:05:34;5.93;;;1.50;;
44706;SDS011;30433;45.596;8.408;2022-08-03T08:11:38;3.20;;;1.60;;
44706;SDS011;30433;45.596;8.408;2022-08-03T08:17:40;4.88;;;1.20;;
44706;SDS011;30433;45.596;8.408;2022-08-03T08:23:43;3.50;;;1.45;;
44706;SDS011;30433;45.596;8.408;2022-08-03T08:29:47;6.18;;;1.42;;
44706;SDS011;30433;45.596;8.408;2022-08-03T08:35:49;3.58;;;1.42;;
44706;SDS011;30433;45.596;8.408;2022-08-03T08:41:52;9.13;;;1.35;;
44706;SDS011;30433;45.596;8.408;2022-08-03T08:47:56;8.38;;;1.20;;
44706;SDS011;30433;45.596;8.408;2022-08-03T08:54:00;5.20;;;1.20;;
44706;SDS011;30433;45.596;8.408;2022-08-03T09:00:04;3.70;;;1.00;;
44706;SDS011;30433;45.596;8.408;2022-08-03T09:06:10;3.50;;;1.13;;
44706;SDS011;30433;45.596;8.408;2022-08-03T09:12:12;4.18;;;1.38;;
44706;SDS011;30433;45.596;8.408;2022-08-03T09:18:22;2.72;;;1.50;;
44706;SDS011;30433;45.596;8.408;2022-08-03T09:24:31;3.97;;;1.42;;
44706;SDS011;30433;45.596;8.408;2022-08-03T09:30:33;4.85;;;1.30;;
44706;SDS011;30433;45.596;8.408;2022-08-03T09:36:37;4.25;;;1.45;;
44706;SDS011;30433;45.596;8.408;2022-08-03T09:42:42;5.93;;;1.40;;
44706;SDS011;30433;45.596;8.408;2022-08-03T09:49:09;5.57;;;1.35;;
44706;SDS011;30433;45.596;8.408;2022-08-03T09:55:12;2.30;;;2.10;;
44706;SDS011;30433;45.596;8.408;2022-08-03T10:01:16;1.60;;;1.20;;
44706;SDS011;30433;45.596;8.408;2022-08-03T10:07:19;8.60;;;1.50;;
44706;SDS011;30433;45.596;8.408;2022-08-03T10:13:22;1.88;;;0.98;;
44706;SDS011;30433;45.596;8.408;2022-08-03T10:19:26;4.25;;;1.20;;
44706;SDS011;30433;45.596;8.408;2022-08-03T10:25:28;2.92;;;0.98;;
44706;SDS011;30433;45.596;8.408;2022-08-03T10:31:34;4.47;;;1.10;;
44706;SDS011;30433;45.596;8.408;2022-08-03T10:37:41;1.85;;;1.02;;
44706;SDS011;30433;45.596;8.408;2022-08-03T10:43:46;3.47;;;1.38;;
44706;SDS011;30433;45.596;8.408;2022-08-03T10:49:51;1.60;;;1.00;;
44706;SDS011;30433;45.596;8.408;2022-08-03T10:55:54;2.20;;;1.00;;
44706;SDS011;30433;45.596;8.408;2022-08-03T11:02:14;7.10;;;1.30;;
44706;SDS011;30433;45.596;8.408;2022-08-03T11:14:45;2.80;;;1.20;;
44706;SDS011;30433;45.596;8.408;2022-08-03T11:20:49;3.58;;;1.20;;
44706;SDS011;30433;45.596;8.408;2022-08-03T11:33:29;6.80;;;1.60;;
44706;SDS011;30433;45.596;8.408;2022-08-03T11:39:37;1.77;;;1.17;;
44706;SDS011;30433;45.596;8.408;2022-08-03T11:45:39;3.33;;;1.48;;
44706;SDS011;30433;45.596;8.408;2022-08-03T11:51:59;1.67;;;1.00;;
44706;SDS011;30433;45.596;8.408;2022-08-03T11:58:01;2.55;;;1.30;;
44706;SDS011;30433;45.596;8.408;2022-08-03T12:04:03;2.08;;;1.20;;
44706;SDS011;30433;45.596;8.408;2022-08-03T12:10:08;3.13;;;1.10;;
44706;SDS011;30433;45.596;8.408;2022-08-03T12:16:14;2.10;;;1.20;;
44706;SDS011;30433;45.596;8.408;2022-08-03T12:22:29;1.30;;;1.02;;
44706;SDS011;30433;45.596;8.408;2022-08-03T12:28:33;2.33;;;1.20;;
44706;SDS011;30433;45.596;8.408;2022-08-03T12:34:45;2.40;;;1.15;;
44706;SDS011;30433;45.596;8.408;2022-08-03T12:40:58;4.63;;;1.10;;
44706;SDS011;30433;45.596;8.408;2022-08-03T12:47:03;2.60;;;1.30;;
44706;SDS011;30433;45.596;8.408;2022-08-03T12:53:09;2.97;;;1.30;;
44706;SDS011;30433;45.596;8.408;2022-08-03T12:59:24;2.58;;;1.20;;
44706;SDS011;30433;45.596;8.408;2022-08-03T13:05:30;1.73;;;1.00;;
44706;SDS011;30433;45.596;8.408;2022-08-03T13:11:45;1.88;;;1.10;;
44706;SDS011;30433;45.596;8.408;2022-08-03T13:17:47;1.20;;;0.93;;
44706;SDS011;30433;45.596;8.408;2022-08-03T13:23:51;1.65;;;0.90;;
44706;SDS011;30433;45.596;8.408;2022-08-03T13:29:53;2.92;;;0.93;;
44706;SDS011;30433;45.596;8.408;2022-08-03T13:35:55;2.67;;;0.90;;
44706;SDS011;30433;45.596;8.408;2022-08-03T13:41:59;1.52;;;0.95;;
44706;SDS011;30433;45.596;8.408;2022-08-03T13:48:01;2.38;;;0.88;;
44706;SDS011;30433;45.596;8.408;2022-08-03T13:54:03;3.30;;;0.98;;
44706;SDS011;30433;45.596;8.408;2022-08-03T14:00:08;2.72;;;1.50;;
44706;SDS011;30433;45.596;8.408;2022-08-03T14:06:11;4.28;;;1.30;;
44706;SDS011;30433;45.596;8.408;2022-08-03T14:12:13;2.47;;;1.00;;
44706;SDS011;30433;45.596;8.408;2022-08-03T14:18:16;3.28;;;1.25;;
44706;SDS011;30433;45.596;8.408;2022-08-03T14:24:20;1.50;;;1.02;;
44706;SDS011;30433;45.596;8.408;2022-08-03T14:30:22;1.25;;;0.95;;
44706;SDS011;30433;45.596;8.408;2022-08-03T14:36:26;2.17;;;1.10;;
44706;SDS011;30433;45.596;8.408;2022-08-03T14:42:28;2.30;;;1.10;;
44706;SDS011;30433;45.596;8.408;2022-08-03T14:48:30;1.83;;;1.15;;
44706;SDS011;30433;45.596;8.408;2022-08-03T14:54:33;3.47;;;1.27;;
44706;SDS011;30433;45.596;8.408;2022-08-03T15:00:36;5.43;;;1.08;;
44706;SDS011;30433;45.596;8.408;2022-08-03T15:06:38;2.50;;;1.02;;
44706;SDS011;30433;45.596;8.408;2022-08-03T15:12:41;5.45;;;1.50;;
44706;SDS011;30433;45.596;8.408;2022-08-03T15:18:43;3.20;;;1.15;;
44706;SDS011;30433;45.596;8.408;2022-08-03T15:24:46;2.05;;;1.02;;
44706;SDS011;30433;45.596;8.408;2022-08-03T15:30:49;2.35;;;1.13;;
44706;SDS011;30433;45.596;8.408;2022-08-03T15:36:52;3.20;;;1.10;;
44706;SDS011;30433;45.596;8.408;2022-08-03T15:42:54;3.83;;;1.15;;
44706;SDS011;30433;45.596;8.408;2022-08-03T15:48:57;8.77;;;1.38;;
44706;SDS011;30433;45.596;8.408;2022-08-03T15:54:59;4.47;;;1.05;;
44706;SDS011;30433;45.596;8.408;2022-08-03T16:01:02;3.45;;;1.10;;
44706;SDS011;30433;45.596;8.408;2022-08-03T16:07:06;2.38;;;1.00;;
44706;SDS011;30433;45.596;8.408;2022-08-03T16:13:09;1.65;;;1.10;;
44706;SDS011;30433;45.596;8.408;2022-08-03T16:19:11;3.53;;;1.10;;
44706;SDS011;30433;45.596;8.408;2022-08-03T16:25:15;2.47;;;1.10;;
44706;SDS011;30433;45.596;8.408;2022-08-03T16:31:17;11.70;;;1.55;;
44706;SDS011;30433;45.596;8.408;2022-08-03T16:37:21;1.65;;;1.10;;
44706;SDS011;30433;45.596;8.408;2022-08-03T16:43:24;2.47;;;1.10;;
44706;SDS011;30433;45.596;8.408;2022-08-03T16:49:27;4.90;;;1.00;;
44706;SDS011;30433;45.596;8.408;2022-08-03T16:55:29;5.13;;;1.27;;
44706;SDS011;30433;45.596;8.408;2022-08-03T17:01:32;6.10;;;1.70;;
44706;SDS011;30433;45.596;8.408;2022-08-03T17:07:35;1.75;;;1.30;;
44706;SDS011;30433;45.596;8.408;2022-08-03T17:13:39;6.80;;;1.55;;
44706;SDS011;30433;45.596;8.408;2022-08-03T17:19:45;6.30;;;1.40;;
44706;SDS011;30433;45.596;8.408;2022-08-03T17:25:49;3.88;;;1.38;;
44706;SDS011;30433;45.596;8.408;2022-08-03T17:31:51;3.60;;;1.27;;
44706;SDS011;30433;45.596;8.408;2022-08-03T17:37:55;3.33;;;1.17;;
44706;SDS011;30433;45.596;8.408;2022-08-03T17:43:58;2.83;;;1.10;;
44706;SDS011;30433;45.596;8.408;2022-08-03T17:50:00;3.03;;;1.00;;
44706;SDS011;30433;45.596;8.408;2022-08-03T17:56:07;2.00;;;1.02;;
44706;SDS011;30433;45.596;8.408;2022-08-03T18:02:20;8.73;;;1.48;;
44706;SDS011;30433;45.596;8.408;2022-08-03T18:09:03;2.20;;;1.00;;
44706;SDS011;30433;45.596;8.408;2022-08-03T18:15:09;4.32;;;1.38;;
44706;SDS011;30433;45.596;8.408;2022-08-03T18:21:13;3.40;;;1.40;;
44706;SDS011;30433;45.596;8.408;2022-08-03T18:27:16;4.75;;;1.20;;
44706;SDS011;30433;45.596;8.408;2022-08-03T18:33:22;4.82;;;1.38;;
44706;SDS011;30433;45.596;8.408;2022-08-03T18:39:26;3.83;;;1.30;;
44706;SDS011;30433;45.596;8.408;2022-08-03T18:45:32;6.50;;;1.63;;
44706;SDS011;30433;45.596;8.408;2022-08-03T18:51:39;6.32;;;1.73;;
44706;SDS011;30433;45.596;8.408;2022-08-03T18:57:44;10.98;;;1.92;;
44706;SDS011;30433;45.596;8.408;2022-08-03T19:03:54;5.28;;;1.63;;
44706;SDS011;30433;45.596;8.408;2022-08-03T19:10:05;5.95;;;1.45;;
44706;SDS011;30433;45.596;8.408;2022-08-03T19:16:10;5.60;;;1.65;;
44706;SDS011;30433;45.596;8.408;2022-08-03T19:22:18;6.38;;;1.45;;
44706;SDS011;30433;45.596;8.408;2022-08-03T19:28:23;2.33;;;1.23;;
44706;SDS011;30433;45.596;8.408;2022-08-03T19:34:27;4.60;;;1.40;;
44706;SDS011;30433;45.596;8.408;2022-08-03T19:40:32;9.02;;;2.00;;
44706;SDS011;30433;45.596;8.408;2022-08-03T19:46:38;3.28;;;1.50;;
44706;SDS011;30433;45.596;8.408;2022-08-03T19:52:43;7.68;;;1.60;;
44706;SDS011;30433;45.596;8.408;2022-08-03T19:58:48;16.33;;;2.60;;
44706;SDS011;30433;45.596;8.408;2022-08-03T20:04:52;6.22;;;1.90;;
44706;SDS011;30433;45.596;8.408;2022-08-03T20:10:56;4.65;;;1.60;;
44706;SDS011;30433;45.596;8.408;2022-08-03T20:16:59;3.28;;;1.42;;
44706;SDS011;30433;45.596;8.408;2022-08-03T20:23:04;4.38;;;1.98;;
44706;SDS011;30433;45.596;8.408;2022-08-03T20:29:07;3.28;;;1.67;;
44706;SDS011;30433;45.596;8.408;2022-08-03T20:35:11;4.13;;;1.80;;
44706;SDS011;30433;45.596;8.408;2022-08-03T20:41:15;2.88;;;1.75;;
44706;SDS011;30433;45.596;8.408;2022-08-03T20:47:17;2.08;;;1.40;;
44706;SDS011;30433;45.596;8.408;2022-08-03T20:53:19;11.43;;;2.83;;
44706;SDS011;30433;45.596;8.408;2022-08-03T20:59:23;6.13;;;1.60;;
44706;SDS011;30433;45.596;8.408;2022-08-03T21:05:29;5.65;;;1.55;;
44706;SDS011;30433;45.596;8.408;2022-08-03T21:11:32;7.50;;;2.17;;
44706;SDS011;30433;45.596;8.408;2022-08-03T21:17:43;7.68;;;2.10;;
44706;SDS011;30433;45.596;8.408;2022-08-03T21:23:48;4.82;;;2.00;;
44706;SDS011;30433;45.596;8.408;2022-08-03T21:29:51;4.53;;;2.00;;
44706;SDS011;30433;45.596;8.408;2022-08-03T21:35:55;3.50;;;2.25;;
44706;SDS011;30433;45.596;8.408;2022-08-03T21:41:59;3.63;;;2.15;;
44706;SDS011;30433;45.596;8.408;2022-08-03T21:48:01;4.00;;;1.70;;
44706;SDS011;30433;45.596;8.408;2022-08-03T21:54:06;2.88;;;1.65;;
44706;SDS011;30433;45.596;8.408;2022-08-03T22:00:11;4.68;;;1.70;;
44706;SDS011;30433;45.596;8.408;2022-08-03T22:06:14;3.35;;;1.80;;
44706;SDS011;30433;45.596;8.408;2022-08-03T22:12:19;5.55;;;2.15;;
44706;SDS011;30433;45.596;8.408;2022-08-03T22:18:22;4.05;;;2.00;;
44706;SDS011;30433;45.596;8.408;2022-08-03T22:24:25;2.47;;;1.73;;
44706;SDS011;30433;45.596;8.408;2022-08-03T22:30:33;3.95;;;1.95;;
44706;SDS011;30433;45.596;8.408;2022-08-03T22:36:35;5.93;;;2.08;;
44706;SDS011;30433;45.596;8.408;2022-08-03T22:42:38;4.45;;;2.20;;
44706;SDS011;30433;45.596;8.408;2022-08-03T22:48:42;5.80;;;1.95;;
44706;SDS011;30433;45.596;8.408;2022-08-03T22:54:46;4.25;;;2.10;;
44706;SDS011;30433;45.596;8.408;2022-08-03T23:00:50;3.00;;;1.65;;
44706;SDS011;30433;45.596;8.408;2022-08-03T23:06:56;2.97;;;2.00;;
44706;SDS011;30433;45.596;8.408;2022-08-03T23:13:00;2.88;;;2.08;;
44706;SDS011;30433;45.596;8.408;2022-08-03T23:19:03;2.70;;;1.80;;
44706;SDS011;30433;45.596;8.408;2022-08-03T23:25:08;5.35;;;2.10;;
44706;SDS011;30433;45.596;8.408;2022-08-03T23:31:11;3.33;;;1.98;;
44706;SDS011;30433;45.596;8.408;2022-08-03T23:37:15;4.47;;;1.83;;
44706;SDS011;30433;45.596;8.408;2022-08-03T23:43:20;4.10;;;2.00;;
44706;SDS011;30433;45.596;8.408;2022-08-03T23:49:24;2.40;;;2.03;;
44706;SDS011;30433;45.596;8.408;2022-08-03T23:55:30;3.53;;;2.00;;
